Time;durP1;ratioP1;P1;durP2;ratioP2;P2;SDS_P1;SDS_P2;PMS_P1;PMS_P2;Temp;Humidity;BMP_temperature;BMP_pressure;BME280_temperature;BME280_humidity;BME280_pressure;Samples;Min_cycle;Max_cycle;Signal;HPM_P1;HPM_P2
2023/10/24 00:02:22;;;;;;;9.30;2.30;;;;;;;;;;5012538;28;20021;-91
2023/10/24 00:04:47;;;;;;;7.25;2.28;;;;;;;;;;5014909;28;20267;-90
2023/10/24 00:07:12;;;;;;;9.67;2.27;;;;;;;;;;5033150;28;20029;-91
2023/10/24 00:09:37;;;;;;;15.10;3.07;;;;;;;;;;5033192;28;20320;-90
2023/10/24 00:12:03;;;;;;;9.40;2.90;;;;;;;;;;5019337;28;20287;-90
2023/10/24 00:14:29;;;;;;;9.20;2.67;;;;;;;;;;5012109;28;20275;-91
2023/10/24 00:16:54;;;;;;;8.65;2.20;;;;;;;;;;5013233;28;20014;-90
2023/10/24 00:19:19;;;;;;;5.77;2.20;;;;;;;;;;5013248;28;20021;-90
2023/10/24 00:21:44;;;;;;;7.60;2.20;;;;;;;;;;5032950;28;20285;-90
2023/10/24 00:24:11;;;;;;;8.57;2.30;;;;;;;;;;5031021;28;20294;-90
2023/10/24 00:26:36;;;;;;;12.82;3.00;;;;;;;;;;5011288;28;20287;-89
2023/10/24 00:29:01;;;;;;;6.50;2.20;;;;;;;;;;5011937;28;20434;-90
2023/10/24 00:31:26;;;;;;;8.27;2.50;;;;;;;;;;5013142;28;20745;-89
2023/10/24 00:33:51;;;;;;;9.63;2.37;;;;;;;;;;5011368;28;20812;-90
2023/10/24 00:36:17;;;;;;;8.40;2.97;;;;;;;;;;5032480;28;20835;-90
2023/10/24 00:38:42;;;;;;;6.00;2.00;;;;;;;;;;5032678;28;20373;-90
2023/10/24 00:41:07;;;;;;;12.98;2.75;;;;;;;;;;5032540;28;20255;-90
2023/10/24 00:43:32;;;;;;;9.73;2.73;;;;;;;;;;5031796;28;20028;-90
2023/10/24 00:45:58;;;;;;;8.70;2.78;;;;;;;;;;5032452;28;20345;-89
2023/10/24 00:48:23;;;;;;;8.50;2.65;;;;;;;;;;5019816;28;20022;-89
2023/10/24 00:50:48;;;;;;;8.85;2.88;;;;;;;;;;5012828;28;20018;-89
2023/10/24 00:53:14;;;;;;;11.50;2.92;;;;;;;;;;5016828;28;20479;-89
2023/10/24 00:55:39;;;;;;;13.50;3.23;;;;;;;;;;5032403;28;20025;-90
2023/10/24 00:58:05;;;;;;;7.38;2.60;;;;;;;;;;5031439;28;20274;-90
2023/10/24 01:00:30;;;;;;;9.68;3.90;;;;;;;;;;5027693;28;20022;-90
2023/10/24 01:02:56;;;;;;;5.28;2.63;;;;;;;;;;5012621;28;20025;-90
2023/10/24 01:05:21;;;;;;;8.00;3.20;;;;;;;;;;5014201;28;20022;-89
2023/10/24 01:07:46;;;;;;;11.48;3.10;;;;;;;;;;5012492;28;20030;-90
2023/10/24 01:10:12;;;;;;;10.00;3.80;;;;;;;;;;5012521;28;20030;-90
2023/10/24 01:12:37;;;;;;;13.35;3.72;;;;;;;;;;5011338;28;20032;-89
2023/10/24 01:15:04;;;;;;;8.30;3.20;;;;;;;;;;5012292;28;20070;-89
2023/10/24 01:17:29;;;;;;;11.77;3.25;;;;;;;;;;5011704;28;20018;-89
2023/10/24 01:19:54;;;;;;;7.60;3.10;;;;;;;;;;5020094;28;20025;-90
2023/10/24 01:22:19;;;;;;;6.53;2.88;;;;;;;;;;5032064;28;20136;-89
2023/10/24 01:24:45;;;;;;;6.97;4.20;;;;;;;;;;5012347;28;20022;-89
2023/10/24 01:27:11;;;;;;;6.32;2.50;;;;;;;;;;5012404;28;20327;-90
2023/10/24 01:29:36;;;;;;;7.38;2.50;;;;;;;;;;5012305;28;20026;-90
2023/10/24 01:32:01;;;;;;;6.40;2.70;;;;;;;;;;5012802;28;20022;-90
2023/10/24 01:34:27;;;;;;;7.28;2.40;;;;;;;;;;5010113;28;20556;-90
2023/10/24 01:36:52;;;;;;;3.95;1.83;;;;;;;;;;5019330;28;20014;-90
2023/10/24 01:39:17;;;;;;;6.43;2.20;;;;;;;;;;5011719;28;20100;-90
2023/10/24 01:41:42;;;;;;;5.30;2.10;;;;;;;;;;5011846;28;20343;-90
2023/10/24 01:44:08;;;;;;;3.87;1.83;;;;;;;;;;5009914;28;20271;-89
2023/10/24 01:46:33;;;;;;;5.07;1.92;;;;;;;;;;5012034;28;20271;-90
2023/10/24 01:48:58;;;;;;;1.93;1.13;;;;;;;;;;5011945;28;20112;-90
2023/10/24 01:51:23;;;;;;;4.63;1.30;;;;;;;;;;5011313;28;20268;-90
2023/10/24 01:53:49;;;;;;;5.23;1.47;;;;;;;;;;5012028;28;20049;-90
2023/10/24 01:56:14;;;;;;;2.25;1.35;;;;;;;;;;5015863;28;20327;-90
2023/10/24 01:58:39;;;;;;;6.10;2.20;;;;;;;;;;5015416;28;20525;-90
2023/10/24 02:01:06;;;;;;;7.18;2.40;;;;;;;;;;5016178;28;20313;-90
2023/10/24 02:03:31;;;;;;;10.70;3.08;;;;;;;;;;5014433;28;20021;-90
2023/10/24 02:05:56;;;;;;;4.03;2.40;;;;;;;;;;5012902;28;20468;-89
2023/10/24 02:08:21;;;;;;;6.17;2.50;;;;;;;;;;5015606;28;20295;-90
2023/10/24 02:10:47;;;;;;;8.82;2.60;;;;;;;;;;5015729;28;20263;-90
2023/10/24 02:13:12;;;;;;;6.28;1.92;;;;;;;;;;5014601;28;20025;-90
2023/10/24 02:15:37;;;;;;;4.97;1.93;;;;;;;;;;5015655;28;20050;-90
2023/10/24 02:18:02;;;;;;;5.05;1.90;;;;;;;;;;5013901;28;20410;-90
2023/10/24 02:20:28;;;;;;;9.00;2.47;;;;;;;;;;5015467;28;20033;-90
2023/10/24 02:22:53;;;;;;;3.93;2.17;;;;;;;;;;5013769;28;20022;-90
2023/10/24 02:25:18;;;;;;;6.70;2.65;;;;;;;;;;5014183;28;20268;-89
2023/10/24 02:27:43;;;;;;;4.40;2.30;;;;;;;;;;5014941;28;20033;-90
2023/10/24 02:30:09;;;;;;;6.78;2.80;;;;;;;;;;5014321;28;20269;-90
2023/10/24 02:32:34;;;;;;;2.95;2.00;;;;;;;;;;5027016;28;20108;-90
2023/10/24 02:34:59;;;;;;;6.45;2.70;;;;;;;;;;5033856;28;20018;-89
2023/10/24 02:37:24;;;;;;;8.98;2.67;;;;;;;;;;5034945;28;20064;-90
2023/10/24 02:39:50;;;;;;;7.30;3.38;;;;;;;;;;5015014;28;20527;-90
2023/10/24 02:42:15;;;;;;;8.65;3.60;;;;;;;;;;5015252;28;20399;-90
2023/10/24 02:44:40;;;;;;;11.68;3.42;;;;;;;;;;5015396;28;20045;-89
2023/10/24 02:47:05;;;;;;;9.17;3.73;;;;;;;;;;5025762;28;20124;-90
2023/10/24 02:49:32;;;;;;;11.88;3.90;;;;;;;;;;5035313;28;20689;-90
2023/10/24 02:51:57;;;;;;;9.77;4.65;;;;;;;;;;5022423;28;20018;-89
2023/10/24 02:54:23;;;;;;;5.93;3.05;;;;;;;;;;5015189;28;20034;-90
2023/10/24 02:56:48;;;;;;;9.07;3.45;;;;;;;;;;5015168;28;20018;-90
2023/10/24 02:59:14;;;;;;;7.57;4.07;;;;;;;;;;5015011;28;20030;-90
2023/10/24 03:01:39;;;;;;;7.40;3.97;;;;;;;;;;5016979;28;20018;-89
2023/10/24 03:04:04;;;;;;;8.83;3.57;;;;;;;;;;5014404;28;20263;-89
2023/10/24 03:06:29;;;;;;;9.35;4.28;;;;;;;;;;5013704;28;20294;-89
2023/10/24 03:08:54;;;;;;;8.13;3.03;;;;;;;;;;5014781;28;20022;-89
2023/10/24 03:11:23;;;;;;;7.97;3.23;;;;;;;;;;5013621;28;20271;-89
2023/10/24 03:13:49;;;;;;;7.65;3.58;;;;;;;;;;5014458;28;20255;-90
2023/10/24 03:16:14;;;;;;;4.70;3.03;;;;;;;;;;5011745;28;20026;-90
2023/10/24 03:18:39;;;;;;;13.05;4.72;;;;;;;;;;5032575;28;20468;-90
2023/10/24 03:21:05;;;;;;;7.93;3.50;;;;;;;;;;5034352;28;20021;-90
2023/10/24 03:23:30;;;;;;;4.55;3.00;;;;;;;;;;5023566;28;20270;-89
2023/10/24 03:25:55;;;;;;;6.40;2.92;;;;;;;;;;5013183;28;20452;-89
2023/10/24 03:28:20;;;;;;;6.57;3.22;;;;;;;;;;5014346;28;20480;-90
2023/10/24 03:30:48;;;;;;;7.67;3.50;;;;;;;;;;5012231;28;20018;-89
2023/10/24 03:33:13;;;;;;;7.10;3.15;;;;;;;;;;5029577;28;20285;-88
2023/10/24 03:35:38;;;;;;;7.22;3.17;;;;;;;;;;5034018;28;20108;-89
2023/10/24 03:38:03;;;;;;;6.28;3.05;;;;;;;;;;5033865;28;20029;-89
2023/10/24 03:40:29;;;;;;;6.03;3.38;;;;;;;;;;5033830;28;20029;-89
2023/10/24 03:42:54;;;;;;;3.97;2.83;;;;;;;;;;5017998;28;20033;-89
2023/10/24 03:45:19;;;;;;;9.83;3.80;;;;;;;;;;5014006;28;20733;-89
2023/10/24 03:47:44;;;;;;;3.90;3.17;;;;;;;;;;5029328;28;20294;-89
2023/10/24 03:50:10;;;;;;;7.37;3.50;;;;;;;;;;5027613;28;20033;-89
2023/10/24 03:52:35;;;;;;;3.30;2.80;;;;;;;;;;5013758;28;20263;-89
2023/10/24 03:55:00;;;;;;;9.70;4.03;;;;;;;;;;5012636;28;20033;-89
2023/10/24 03:57:25;;;;;;;6.47;3.15;;;;;;;;;;5012767;28;20275;-89
2023/10/24 03:59:50;;;;;;;7.07;3.73;;;;;;;;;;5013725;28;20554;-90
2023/10/24 04:02:16;;;;;;;6.43;4.00;;;;;;;;;;5027204;28;20369;-90
2023/10/24 04:04:41;;;;;;;6.68;3.67;;;;;;;;;;5016245;28;20272;-89
2023/10/24 04:07:06;;;;;;;6.85;3.53;;;;;;;;;;5005743;28;20496;-89
2023/10/24 04:09:31;;;;;;;7.95;4.10;;;;;;;;;;5007206;28;20097;-90
2023/10/24 04:11:58;;;;;;;10.27;4.20;;;;;;;;;;5010760;28;20030;-89
2023/10/24 04:14:23;;;;;;;8.13;3.70;;;;;;;;;;5014484;28;20064;-89
2023/10/24 04:16:50;;;;;;;6.97;3.70;;;;;;;;;;5024359;28;20748;-89
2023/10/24 04:19:15;;;;;;;9.25;4.22;;;;;;;;;;5031303;28;20021;-89
2023/10/24 04:21:41;;;;;;;6.50;3.90;;;;;;;;;;5033005;28;20438;-89
2023/10/24 04:24:06;;;;;;;7.00;3.77;;;;;;;;;;5033044;28;20020;-88
2023/10/24 04:26:31;;;;;;;6.28;3.72;;;;;;;;;;5015383;28;20298;-89
2023/10/24 04:28:56;;;;;;;7.20;4.27;;;;;;;;;;5013262;28;20021;-89
2023/10/24 04:31:22;;;;;;;6.03;3.57;;;;;;;;;;5022667;28;20277;-89
2023/10/24 04:33:47;;;;;;;11.00;4.37;;;;;;;;;;5032125;28;20262;-90
2023/10/24 04:36:12;;;;;;;5.15;3.78;;;;;;;;;;5031465;28;20254;-89
2023/10/24 04:38:37;;;;;;;7.05;4.18;;;;;;;;;;5033044;28;20049;-89
2023/10/24 04:41:03;;;;;;;7.60;4.13;;;;;;;;;;5021171;28;20029;-89
2023/10/24 04:43:28;;;;;;;4.88;4.05;;;;;;;;;;5012847;28;20022;-89
2023/10/24 04:45:53;;;;;;;6.13;3.47;;;;;;;;;;5019818;28;20022;-89
2023/10/24 04:48:18;;;;;;;5.17;3.73;;;;;;;;;;5030155;28;20468;-89
2023/10/24 04:50:44;;;;;;;8.30;3.93;;;;;;;;;;5011341;28;20762;-89
2023/10/24 04:53:09;;;;;;;8.38;4.60;;;;;;;;;;5012505;28;20264;-89
2023/10/24 04:55:35;;;;;;;6.55;4.50;;;;;;;;;;5012783;28;20546;-89
2023/10/24 04:58:00;;;;;;;6.68;3.53;;;;;;;;;;5011609;28;20112;-89
2023/10/24 05:00:26;;;;;;;8.70;4.68;;;;;;;;;;5017987;28;20560;-89
2023/10/24 05:02:52;;;;;;;6.60;4.22;;;;;;;;;;5032301;28;20036;-89
2023/10/24 05:05:17;;;;;;;4.50;3.70;;;;;;;;;;5032369;28;20376;-89
2023/10/24 05:07:42;;;;;;;5.90;4.10;;;;;;;;;;5032142;28;20040;-89
2023/10/24 05:10:08;;;;;;;6.00;3.75;;;;;;;;;;5025982;28;20014;-89
2023/10/24 05:12:33;;;;;;;8.57;4.35;;;;;;;;;;5012334;28;20021;-89
2023/10/24 05:14:58;;;;;;;7.50;4.30;;;;;;;;;;5017491;28;20476;-89
2023/10/24 05:17:24;;;;;;;4.82;4.18;;;;;;;;;;5032548;28;20435;-89
2023/10/24 05:19:49;;;;;;;7.90;4.35;;;;;;;;;;5030978;28;20024;-89
2023/10/24 05:22:14;;;;;;;8.45;4.15;;;;;;;;;;5032067;28;20503;-89
2023/10/24 05:24:40;;;;;;;5.63;3.88;;;;;;;;;;5032008;28;20092;-89
2023/10/24 05:27:05;;;;;;;8.23;4.22;;;;;;;;;;5010527;28;20083;-89
2023/10/24 05:29:34;;;;;;;6.60;4.97;;;;;;;;;;5013988;28;20464;-89
2023/10/24 05:31:59;;;;;;;6.85;4.13;;;;;;;;;;5030823;28;20021;-89
2023/10/24 05:34:27;;;;;;;4.28;3.80;;;;;;;;;;5031991;28;20379;-89
2023/10/24 05:36:53;;;;;;;4.53;3.78;;;;;;;;;;5031850;28;20034;-89
2023/10/24 05:39:19;;;;;;;6.22;4.03;;;;;;;;;;5020320;28;20052;-89
2023/10/24 05:41:45;;;;;;;7.88;3.80;;;;;;;;;;5011902;28;20076;-89
2023/10/24 05:44:10;;;;;;;6.03;3.80;;;;;;;;;;5014580;28;20017;-89
2023/10/24 05:46:35;;;;;;;4.73;3.90;;;;;;;;;;5031927;28;20479;-89
2023/10/24 05:49:00;;;;;;;4.80;3.23;;;;;;;;;;5031842;28;20281;-90
2023/10/24 05:51:27;;;;;;;4.22;3.03;;;;;;;;;;5031784;28;20258;-89
2023/10/24 05:53:53;;;;;;;4.55;3.47;;;;;;;;;;5026695;28;20025;-89
2023/10/24 05:56:18;;;;;;;3.03;2.47;;;;;;;;;;5012064;28;20101;-90
2023/10/24 05:58:44;;;;;;;5.80;3.45;;;;;;;;;;5010496;28;20033;-89
2023/10/24 06:01:09;;;;;;;5.20;3.10;;;;;;;;;;5010539;28;20028;-89
2023/10/24 06:03:34;;;;;;;4.97;3.53;;;;;;;;;;5012012;28;20030;-89
2023/10/24 06:05:59;;;;;;;5.90;3.07;;;;;;;;;;5011946;28;20243;-89
2023/10/24 06:08:25;;;;;;;3.80;2.70;;;;;;;;;;5009507;28;20280;-89
2023/10/24 06:10:54;;;;;;;5.20;2.70;;;;;;;;;;5010720;28;20591;-89
2023/10/24 06:13:19;;;;;;;6.95;2.90;;;;;;;;;;5011108;28;20259;-89
2023/10/24 06:15:44;;;;;;;4.27;2.47;;;;;;;;;;5019315;28;20113;-89
2023/10/24 06:18:09;;;;;;;2.77;2.13;;;;;;;;;;5011618;28;20282;-89
2023/10/24 06:20:37;;;;;;;4.27;2.40;;;;;;;;;;5011873;28;20342;-89
2023/10/24 06:23:04;;;;;;;4.40;2.33;;;;;;;;;;5011657;28;20283;-89
2023/10/24 06:25:29;;;;;;;3.35;2.40;;;;;;;;;;5011806;28;20372;-89
2023/10/24 06:27:54;;;;;;;3.80;2.30;;;;;;;;;;5011728;28;20026;-89
2023/10/24 06:30:19;;;;;;;3.70;2.13;;;;;;;;;;5009612;28;20704;-90
2023/10/24 06:32:45;;;;;;;3.10;1.83;;;;;;;;;;5009229;28;20041;-89
2023/10/24 06:35:10;;;;;;;2.78;1.90;;;;;;;;;;5011591;28;20669;-89
2023/10/24 06:37:35;;;;;;;4.65;2.42;;;;;;;;;;5011776;28;20384;-89
2023/10/24 06:40:01;;;;;;;8.38;2.45;;;;;;;;;;5010480;28;20018;-89
2023/10/24 06:42:27;;;;;;;3.08;1.70;;;;;;;;;;5013935;28;20380;-89
2023/10/24 06:44:52;;;;;;;2.30;1.42;;;;;;;;;;5015202;28;20022;-89
2023/10/24 06:47:17;;;;;;;3.40;1.83;;;;;;;;;;5015947;28;20034;-89
2023/10/24 06:49:42;;;;;;;5.63;2.03;;;;;;;;;;5014804;28;20259;-89
2023/10/24 06:52:08;;;;;;;3.63;1.47;;;;;;;;;;5014808;28;20267;-89
2023/10/24 06:54:33;;;;;;;3.30;1.75;;;;;;;;;;5013690;28;20279;-89
2023/10/24 06:56:59;;;;;;;3.60;1.70;;;;;;;;;;5013994;28;20017;-89
2023/10/24 06:59:24;;;;;;;3.27;1.33;;;;;;;;;;5014927;28;20262;-89
2023/10/24 07:01:50;;;;;;;3.83;1.90;;;;;;;;;;5023221;28;20270;-90
2023/10/24 07:04:15;;;;;;;4.80;1.67;;;;;;;;;;5033017;28;20798;-89
2023/10/24 07:06:42;;;;;;;4.03;1.73;;;;;;;;;;5014949;28;20022;-89
2023/10/24 07:09:07;;;;;;;5.95;1.95;;;;;;;;;;5033117;28;20278;-89
2023/10/24 07:11:33;;;;;;;4.45;1.65;;;;;;;;;;5017472;28;20423;-89
2023/10/24 07:13:58;;;;;;;1.93;1.50;;;;;;;;;;5013401;28;20129;-89
2023/10/24 07:16:23;;;;;;;3.13;1.90;;;;;;;;;;5022091;28;20761;-90
2023/10/24 07:18:48;;;;;;;2.65;1.92;;;;;;;;;;5022861;28;20932;-90
2023/10/24 07:21:15;;;;;;;4.07;2.55;;;;;;;;;;5014208;28;20014;-90
2023/10/24 07:23:40;;;;;;;5.95;3.80;;;;;;;;;;5012892;28;20476;-90
2023/10/24 07:26:05;;;;;;;7.38;2.65;;;;;;;;;;5014206;28;20018;-91
2023/10/24 07:28:31;;;;;;;5.75;3.22;;;;;;;;;;5014112;28;20488;-90
2023/10/24 07:30:56;;;;;;;4.97;2.92;;;;;;;;;;5011943;28;20014;-89
2023/10/24 07:33:22;;;;;;;17.25;5.22;;;;;;;;;;5021928;28;20448;-90
2023/10/24 07:35:50;;;;;;;17.88;5.13;;;;;;;;;;5014701;28;20014;-90
2023/10/24 07:38:15;;;;;;;19.73;5.10;;;;;;;;;;5015865;28;20674;-90
2023/10/24 07:40:41;;;;;;;8.47;4.70;;;;;;;;;;5014626;28;20022;-90
2023/10/24 07:43:07;;;;;;;11.30;4.45;;;;;;;;;;5011994;28;20824;-90
2023/10/24 07:45:32;;;;;;;7.72;4.63;;;;;;;;;;5014144;28;20022;-90
2023/10/24 07:47:59;;;;;;;5.30;4.05;;;;;;;;;;5012568;28;20033;-90
2023/10/24 07:50:24;;;;;;;42.97;4.63;;;;;;;;;;5012170;28;20060;-90
2023/10/24 07:52:49;;;;;;;4.55;3.50;;;;;;;;;;5026166;28;20049;-90
2023/10/24 07:55:14;;;;;;;3.07;2.77;;;;;;;;;;5018160;28;20144;-90
2023/10/24 07:57:40;;;;;;;3.45;3.15;;;;;;;;;;5008667;28;20267;-91
2023/10/24 08:00:07;;;;;;;8.75;3.15;;;;;;;;;;5013520;28;20044;-90
2023/10/24 08:02:32;;;;;;;3.38;3.08;;;;;;;;;;5011716;28;20112;-90
2023/10/24 08:04:58;;;;;;;34.33;3.70;;;;;;;;;;5012978;28;20097;-90
2023/10/24 08:07:23;;;;;;;11.53;3.13;;;;;;;;;;5030301;28;20049;-90
2023/10/24 08:09:48;;;;;;;3.37;2.93;;;;;;;;;;5019423;28;20271;-90
2023/10/24 08:12:14;;;;;;;53.75;3.83;;;;;;;;;;5023406;28;20271;-91
2023/10/24 08:14:39;;;;;;;2.80;2.60;;;;;;;;;;5022313;28;20445;-91
2023/10/24 08:17:04;;;;;;;10.25;3.15;;;;;;;;;;5012048;28;20070;-91
2023/10/24 08:19:30;;;;;;;2.90;2.70;;;;;;;;;;5013422;28;20029;-91
2023/10/24 08:21:55;;;;;;;2.58;2.38;;;;;;;;;;5013183;28;20296;-91
2023/10/24 08:24:21;;;;;;;2.80;2.30;;;;;;;;;;5013072;28;20026;-90
2023/10/24 08:26:46;;;;;;;6.78;2.63;;;;;;;;;;5017658;28;20338;-91
2023/10/24 08:29:11;;;;;;;2.83;2.63;;;;;;;;;;5017578;28;20022;-89
2023/10/24 08:31:36;;;;;;;3.47;2.43;;;;;;;;;;5010001;28;20033;-90
2023/10/24 08:34:02;;;;;;;7.23;3.07;;;;;;;;;;5012886;28;20263;-88
2023/10/24 08:36:27;;;;;;;5.40;3.55;;;;;;;;;;5011469;28;20264;-89
2023/10/24 08:38:52;;;;;;;3.90;3.20;;;;;;;;;;5012808;28;20022;-88
2023/10/24 08:41:19;;;;;;;6.47;3.77;;;;;;;;;;5015383;28;20287;-89
2023/10/24 08:43:45;;;;;;;4.55;3.20;;;;;;;;;;5028375;28;20262;-89
2023/10/24 08:46:10;;;;;;;6.78;3.25;;;;;;;;;;5028722;28;20373;-89
2023/10/24 08:48:36;;;;;;;7.30;3.30;;;;;;;;;;5017454;28;20557;-89
2023/10/24 08:51:01;;;;;;;7.28;3.92;;;;;;;;;;5010627;28;20026;-88
2023/10/24 08:53:26;;;;;;;4.28;2.85;;;;;;;;;;4999183;28;20026;-89
2023/10/24 08:55:52;;;;;;;8.55;4.63;;;;;;;;;;5010666;28;20080;-89
2023/10/24 08:58:18;;;;;;;7.63;3.35;;;;;;;;;;5009417;28;20477;-89
2023/10/24 09:00:43;;;;;;;6.53;2.08;;;;;;;;;;5018300;28;20033;-89
2023/10/24 09:03:09;;;;;;;4.05;2.00;;;;;;;;;;5031666;28;20018;-86
2023/10/24 09:05:36;;;;;;;3.60;2.03;;;;;;;;;;5022599;28;20029;-91
2023/10/24 09:08:02;;;;;;;9.80;1.90;;;;;;;;;;5012281;28;20495;-91
2023/10/24 09:10:27;;;;;;;5.35;1.17;;;;;;;;;;5012344;28;20029;-91
2023/10/24 09:12:55;;;;;;;4.07;1.57;;;;;;;;;;5010088;28;20482;-91
2023/10/24 09:15:21;;;;;;;4.75;1.50;;;;;;;;;;5010402;28;20262;-90
2023/10/24 09:17:46;;;;;;;6.72;1.75;;;;;;;;;;5011522;28;20379;-90
2023/10/24 09:20:11;;;;;;;5.97;1.13;;;;;;;;;;5011759;28;20017;-90
2023/10/24 09:22:40;;;;;;;4.40;1.70;;;;;;;;;;5011177;28;20483;-90
2023/10/24 09:25:08;;;;;;;5.65;1.23;;;;;;;;;;5011922;28;20256;-90
2023/10/24 09:27:33;;;;;;;5.03;1.60;;;;;;;;;;5011810;28;20124;-90
2023/10/24 09:29:58;;;;;;;6.95;1.40;;;;;;;;;;5010561;28;20101;-90
2023/10/24 09:32:25;;;;;;;3.57;1.13;;;;;;;;;;5011808;28;20387;-90
2023/10/24 09:34:50;;;;;;;6.25;1.17;;;;;;;;;;5010716;28;20262;-91
2023/10/24 09:37:16;;;;;;;3.83;1.30;;;;;;;;;;5008391;28;20392;-90
2023/10/24 09:39:51;;;;;;;3.35;1.38;;;;;;;;;;5008331;28;20757;-91
2023/10/24 09:42:19;;;;;;;11.32;3.08;;;;;;;;;;5008305;28;20503;-90
2023/10/24 09:44:45;;;;;;;4.18;1.35;;;;;;;;;;5008072;28;20029;-90
2023/10/24 09:47:10;;;;;;;3.67;0.90;;;;;;;;;;5011004;28;20091;-90
2023/10/24 09:49:36;;;;;;;6.90;2.20;;;;;;;;;;5010763;28;20026;-90
2023/10/24 09:52:01;;;;;;;11.43;1.67;;;;;;;;;;5011064;28;20022;-90
2023/10/24 09:54:27;;;;;;;4.90;1.33;;;;;;;;;;5007208;28;20049;-90
2023/10/24 09:56:53;;;;;;;7.55;1.55;;;;;;;;;;5010046;28;20270;-90
2023/10/24 09:59:19;;;;;;;6.03;2.08;;;;;;;;;;5009030;28;20080;-90
2023/10/24 10:01:44;;;;;;;9.93;1.70;;;;;;;;;;5009975;28;20017;-90
2023/10/24 10:04:12;;;;;;;5.65;1.38;;;;;;;;;;5018462;28;20144;-91
2023/10/24 10:06:39;;;;;;;7.47;1.75;;;;;;;;;;5022343;28;20017;-90
2023/10/24 10:09:04;;;;;;;5.88;1.73;;;;;;;;;;5031250;28;20037;-90
2023/10/24 10:11:30;;;;;;;9.50;2.63;;;;;;;;;;5020247;28;20536;-90
2023/10/24 10:13:59;;;;;;;5.25;1.90;;;;;;;;;;5007904;28;20018;-90
2023/10/24 10:16:45;;;;;;;9.45;2.20;;;;;;;;;;5012244;28;20105;-90
2023/10/24 10:19:22;;;;;;;5.20;1.60;;;;;;;;;;5015213;28;20480;-90
2023/10/24 10:21:58;;;;;;;3.72;1.17;;;;;;;;;;5015844;28;20136;-90
2023/10/24 10:24:26;;;;;;;7.18;1.58;;;;;;;;;;5013276;28;20369;-90
2023/10/24 10:27:09;;;;;;;3.35;1.10;;;;;;;;;;5013642;28;20357;-90
2023/10/24 10:29:43;;;;;;;4.75;2.03;;;;;;;;;;5014881;28;20030;-90
2023/10/24 10:32:09;;;;;;;3.08;1.30;;;;;;;;;;5012650;28;20021;-90
2023/10/24 10:34:35;;;;;;;8.17;1.30;;;;;;;;;;5012465;28;20014;-90
2023/10/24 10:37:01;;;;;;;9.15;1.20;;;;;;;;;;5022545;28;20042;-90
2023/10/24 10:39:26;;;;;;;3.22;1.00;;;;;;;;;;5013813;28;20030;-90
2023/10/24 10:41:52;;;;;;;6.32;1.10;;;;;;;;;;5013415;28;20024;-90
2023/10/24 10:44:36;;;;;;;6.47;0.68;;;;;;;;;;5011525;28;20025;-91
2023/10/24 10:47:02;;;;;;;7.20;1.30;;;;;;;;;;5010513;28;20034;-90
2023/10/24 10:49:37;;;;;;;10.32;1.52;;;;;;;;;;5011682;28;20041;-90
2023/10/24 10:52:03;;;;;;;5.20;0.75;;;;;;;;;;5015730;28;20010;-90
2023/10/24 10:54:41;;;;;;;5.38;0.90;;;;;;;;;;5013189;28;20037;-91
2023/10/24 10:57:07;;;;;;;9.57;1.00;;;;;;;;;;5012083;28;20069;-90
2023/10/24 10:59:57;;;;;;;3.35;0.80;;;;;;;;;;5019506;28;20501;-90
2023/10/24 11:02:38;;;;;;;5.20;1.13;;;;;;;;;;5005838;28;20089;-90
2023/10/24 11:05:21;;;;;;;7.65;1.15;;;;;;;;;;5014418;28;20068;-90
2023/10/24 11:07:50;;;;;;;8.32;0.90;;;;;;;;;;5012573;28;20037;-90
2023/10/24 11:10:16;;;;;;;5.35;1.10;;;;;;;;;;5013633;28;20033;-91
2023/10/24 11:12:51;;;;;;;7.72;1.30;;;;;;;;;;5010864;28;20105;-90
2023/10/24 11:15:18;;;;;;;6.43;1.73;;;;;;;;;;5013244;28;20025;-90
2023/10/24 11:17:45;;;;;;;6.18;1.17;;;;;;;;;;5013292;28;20523;-90
2023/10/24 11:20:11;;;;;;;6.38;1.50;;;;;;;;;;5014395;28;20026;-90
2023/10/24 11:22:37;;;;;;;6.93;0.85;;;;;;;;;;5014084;28;20072;-90
2023/10/24 11:25:08;;;;;;;5.10;0.95;;;;;;;;;;5013527;28;20060;-89
2023/10/24 11:27:33;;;;;;;;;;;;;;;;;;5017043;28;20052;-92
2023/10/24 11:29:59;;;;;;;7.82;0.95;;;;;;;;;;5012599;28;19909;-92
2023/10/24 11:32:24;;;;;;;6.63;1.38;;;;;;;;;;5012488;28;20536;-91
2023/10/24 11:34:50;;;;;;;10.00;1.10;;;;;;;;;;5010640;28;20380;-90
2023/10/24 11:37:15;;;;;;;8.00;0.77;;;;;;;;;;5009979;28;20301;-92
2023/10/24 11:39:41;;;;;;;5.70;1.00;;;;;;;;;;5013985;28;20275;-92
2023/10/24 11:42:06;;;;;;;11.80;1.23;;;;;;;;;;5011612;28;20076;-91
2023/10/24 11:44:32;;;;;;;6.78;0.90;;;;;;;;;;5013671;28;20026;-92
2023/10/24 11:46:57;;;;;;;7.03;0.90;;;;;;;;;;5012285;28;20502;-92
2023/10/24 11:49:32;;;;;;;6.97;1.00;;;;;;;;;;5030748;28;20724;-92
2023/10/24 11:51:57;;;;;;;8.93;1.10;;;;;;;;;;5029844;28;20282;-90
2023/10/24 11:54:22;;;;;;;3.45;0.77;;;;;;;;;;5032528;28;20022;-92
2023/10/24 11:56:47;;;;;;;5.50;0.98;;;;;;;;;;5014130;28;20018;-91
2023/10/24 11:59:13;;;;;;;4.20;0.90;;;;;;;;;;5013592;28;20025;-91
2023/10/24 12:01:41;;;;;;;4.55;0.82;;;;;;;;;;5013733;28;20255;-91
2023/10/24 12:04:07;;;;;;;4.75;0.80;;;;;;;;;;5012199;28;20028;-92
2023/10/24 12:06:32;;;;;;;7.70;1.23;;;;;;;;;;5027469;28;20131;-90
2023/10/24 12:08:59;;;;;;;6.70;1.10;;;;;;;;;;5010810;28;20279;-91
2023/10/24 12:11:24;;;;;;;5.72;0.80;;;;;;;;;;5013583;28;20045;-92
2023/10/24 12:13:49;;;;;;;4.20;0.97;;;;;;;;;;5012395;28;20436;-91
2023/10/24 12:16:15;;;;;;;5.28;0.65;;;;;;;;;;5013422;28;20746;-91
2023/10/24 12:18:40;;;;;;;15.90;2.97;;;;;;;;;;5011235;28;20076;-94
2023/10/24 12:21:07;;;;;;;12.53;1.20;;;;;;;;;;5009968;28;20278;-90
2023/10/24 12:23:32;;;;;;;6.93;1.73;;;;;;;;;;5012077;28;20259;-90
2023/10/24 12:25:58;;;;;;;10.75;1.15;;;;;;;;;;5007974;28;20026;-90
2023/10/24 12:28:23;;;;;;;9.80;2.07;;;;;;;;;;5023345;28;20427;-91
2023/10/24 12:30:48;;;;;;;6.37;0.93;;;;;;;;;;5011596;28;20617;-90
2023/10/24 12:33:13;;;;;;;4.67;0.80;;;;;;;;;;5012024;28;20333;-89
2023/10/24 12:35:39;;;;;;;3.97;0.70;;;;;;;;;;5011149;28;20756;-90
2023/10/24 12:38:05;;;;;;;7.63;0.93;;;;;;;;;;5010583;28;20278;-89
2023/10/24 12:40:30;;;;;;;4.47;1.27;;;;;;;;;;5010186;28;20069;-91
2023/10/24 12:42:55;;;;;;;8.88;1.63;;;;;;;;;;5008574;28;20030;-90
2023/10/24 12:45:23;;;;;;;5.70;0.70;;;;;;;;;;5011357;28;20009;-90
2023/10/24 12:47:49;;;;;;;6.80;1.27;;;;;;;;;;5005003;28;20314;-90
2023/10/24 12:50:14;;;;;;;6.65;1.02;;;;;;;;;;4998419;28;20503;-90
2023/10/24 12:52:39;;;;;;;5.72;0.93;;;;;;;;;;5011171;28;20026;-91
2023/10/24 12:55:05;;;;;;;7.45;1.00;;;;;;;;;;5011087;28;20026;-91
2023/10/24 12:57:30;;;;;;;3.50;0.75;;;;;;;;;;5008144;28;20052;-90
2023/10/24 12:59:55;;;;;;;6.40;0.70;;;;;;;;;;5011575;28;20029;-88
2023/10/24 13:02:21;;;;;;;5.30;0.70;;;;;;;;;;5012643;28;20018;-91
2023/10/24 13:04:46;;;;;;;5.78;0.80;;;;;;;;;;5012757;28;20018;-88
2023/10/24 13:07:12;;;;;;;3.30;0.70;;;;;;;;;;5012602;28;20542;-88
2023/10/24 13:09:37;;;;;;;2.88;0.60;;;;;;;;;;5010690;28;20018;-89
2023/10/24 13:12:03;;;;;;;3.22;1.00;;;;;;;;;;5008459;28;20026;-89
2023/10/24 13:14:28;;;;;;;4.20;0.70;;;;;;;;;;5013969;28;20395;-89
2023/10/24 13:16:56;;;;;;;1.83;0.40;;;;;;;;;;5010637;28;20014;-89
2023/10/24 13:19:21;;;;;;;6.68;0.60;;;;;;;;;;5011947;28;20022;-89
2023/10/24 13:21:47;;;;;;;5.90;0.75;;;;;;;;;;5012609;28;20522;-90
2023/10/24 13:24:12;;;;;;;4.57;0.77;;;;;;;;;;5014838;28;20101;-89
2023/10/24 13:26:37;;;;;;;4.13;0.70;;;;;;;;;;5010383;28;20383;-89
2023/10/24 13:29:03;;;;;;;8.32;1.05;;;;;;;;;;5030603;28;20029;-92
2023/10/24 13:31:28;;;;;;;6.43;1.27;;;;;;;;;;5013973;28;20453;-91
2023/10/24 13:33:53;;;;;;;11.83;1.47;;;;;;;;;;5012852;28;20018;-90
2023/10/24 13:36:18;;;;;;;3.67;0.70;;;;;;;;;;5012215;28;20247;-90
2023/10/24 13:38:44;;;;;;;2.78;0.40;;;;;;;;;;5010615;28;20083;-89
2023/10/24 13:41:09;;;;;;;4.70;0.90;;;;;;;;;;5010460;28;20148;-90
2023/10/24 13:43:34;;;;;;;5.53;0.90;;;;;;;;;;5010899;28;20267;-92
2023/10/24 13:45:59;;;;;;;6.20;0.83;;;;;;;;;;5009107;28;20384;-89
2023/10/24 13:48:25;;;;;;;7.93;2.00;;;;;;;;;;5010700;28;20294;-90
2023/10/24 13:50:50;;;;;;;8.23;0.80;;;;;;;;;;5011611;28;20029;-91
2023/10/24 13:53:15;;;;;;;7.60;0.77;;;;;;;;;;5022216;28;20294;-91
2023/10/24 13:55:40;;;;;;;2.90;0.90;;;;;;;;;;5014455;28;20274;-91
2023/10/24 13:58:05;;;;;;;7.07;1.15;;;;;;;;;;5009810;28;20376;-92
2023/10/24 14:00:31;;;;;;;8.13;1.37;;;;;;;;;;5010574;28;20030;-91
2023/10/24 14:02:56;;;;;;;4.03;1.03;;;;;;;;;;5011602;28;20251;-91
2023/10/24 14:05:21;;;;;;;2.70;0.80;;;;;;;;;;5009887;28;20271;-92
2023/10/24 14:07:46;;;;;;;6.20;0.90;;;;;;;;;;5015684;28;20290;-92
2023/10/24 14:10:12;;;;;;;3.63;0.68;;;;;;;;;;5007946;28;20272;-90
2023/10/24 14:12:37;;;;;;;2.65;0.73;;;;;;;;;;5008408;28;20034;-91
2023/10/24 14:15:02;;;;;;;7.43;1.63;;;;;;;;;;5009589;28;20045;-92
2023/10/24 14:17:28;;;;;;;3.72;0.80;;;;;;;;;;5010376;28;20295;-91
2023/10/24 14:19:53;;;;;;;3.45;0.68;;;;;;;;;;5011848;28;20431;-92
2023/10/24 14:22:18;;;;;;;6.23;0.77;;;;;;;;;;5011582;28;20022;-91
2023/10/24 14:24:43;;;;;;;3.83;1.10;;;;;;;;;;5021526;28;20266;-91
2023/10/24 14:27:08;;;;;;;6.30;1.30;;;;;;;;;;5031291;28;20271;-91
2023/10/24 14:29:34;;;;;;;4.95;0.80;;;;;;;;;;5031154;28;20669;-91
2023/10/24 14:31:59;;;;;;;5.68;0.75;;;;;;;;;;5029603;28;20018;-92
2023/10/24 14:34:24;;;;;;;7.65;0.70;;;;;;;;;;5031710;28;20018;-91
2023/10/24 14:36:49;;;;;;;4.15;1.15;;;;;;;;;;5031393;28;20426;-92